sensor_id;sensor_type;location;lat;lon;timestamp;pressure;altitude;pressure_sealevel;temperature;humidity
70954;BME280;58618;47.490;8.736;2023-02-15T00:01:48;97915.25;;;-0.58;100.00
70954;BME280;58618;47.490;8.736;2023-02-15T00:04:17;97927.31;;;-0.60;100.00
70954;BME280;58618;47.490;8.736;2023-02-15T00:06:44;97908.34;;;-0.64;100.00
70954;BME280;58618;47.490;8.736;2023-02-15T00:09:12;97903.28;;;-0.64;100.00
70954;BME280;58618;47.490;8.736;2023-02-15T00:11:39;97907.22;;;-0.61;100.00
70954;BME280;58618;47.490;8.736;2023-02-15T00:14:10;97894.19;;;-0.89;100.00
70954;BME280;58618;47.490;8.736;2023-02-15T00:16:39;97897.59;;;-0.74;100.00
70954;BME280;58618;47.490;8.736;2023-02-15T00:19:08;97898.78;;;-0.54;100.00
70954;BME280;58618;47.490;8.736;2023-02-15T00:21:37;97897.09;;;-0.38;100.00
70954;BME280;58618;47.490;8.736;2023-02-15T00:24:06;97902.00;;;-0.68;100.00
70954;BME280;58618;47.490;8.736;2023-02-15T00:26:34;97875.59;;;-1.04;100.00
70954;BME280;58618;47.490;8.736;2023-02-15T00:29:02;97900.13;;;-1.05;100.00
70954;BME280;58618;47.490;8.736;2023-02-15T00:31:30;97909.69;;;-0.84;100.00
70954;BME280;58618;47.490;8.736;2023-02-15T00:34:01;97886.84;;;-1.07;100.00
70954;BME280;58618;47.490;8.736;2023-02-15T00:36:30;97889.53;;;-1.08;100.00
70954;BME280;58618;47.490;8.736;2023-02-15T00:38:57;97909.75;;;-0.92;100.00
70954;BME280;58618;47.490;8.736;2023-02-15T00:41:24;97902.44;;;-0.87;100.00
70954;BME280;58618;47.490;8.736;2023-02-15T00:43:51;97904.78;;;-1.16;100.00
70954;BME280;58618;47.490;8.736;2023-02-15T00:46:18;97887.38;;;-1.19;100.00
70954;BME280;58618;47.490;8.736;2023-02-15T00:48:46;97914.47;;;-0.89;100.00
70954;BME280;58618;47.490;8.736;2023-02-15T00:51:13;97916.97;;;-0.81;100.00
70954;BME280;58618;47.490;8.736;2023-02-15T00:53:41;97911.31;;;-0.91;100.00
70954;BME280;58618;47.490;8.736;2023-02-15T00:56:09;97883.25;;;-1.12;100.00
70954;BME280;58618;47.490;8.736;2023-02-15T00:58:36;97887.13;;;-1.33;100.00
70954;BME280;58618;47.490;8.736;2023-02-15T01:01:05;97910.44;;;-1.14;100.00
70954;BME280;58618;47.490;8.736;2023-02-15T01:03:33;97905.72;;;-1.17;100.00
70954;BME280;58618;47.490;8.736;2023-02-15T01:06:00;97910.09;;;-1.03;100.00
70954;BME280;58618;47.490;8.736;2023-02-15T01:08:28;97882.91;;;-1.09;100.00
70954;BME280;58618;47.490;8.736;2023-02-15T01:10:57;97902.09;;;-0.84;100.00
70954;BME280;58618;47.490;8.736;2023-02-15T01:13:29;97906.28;;;-0.99;100.00
70954;BME280;58618;47.490;8.736;2023-02-15T01:15:56;97901.50;;;-1.33;100.00
70954;BME280;58618;47.490;8.736;2023-02-15T01:18:23;97904.38;;;-1.44;100.00
70954;BME280;58618;47.490;8.736;2023-02-15T01:20:51;97902.59;;;-1.27;100.00
70954;BME280;58618;47.490;8.736;2023-02-15T01:23:18;97901.31;;;-1.23;100.00
70954;BME280;58618;47.490;8.736;2023-02-15T01:25:46;97908.31;;;-1.34;100.00
70954;BME280;58618;47.490;8.736;2023-02-15T01:28:14;97910.22;;;-1.44;100.00
70954;BME280;58618;47.490;8.736;2023-02-15T01:30:41;97906.56;;;-1.33;100.00
70954;BME280;58618;47.490;8.736;2023-02-15T01:33:10;97906.56;;;-1.33;100.00
70954;BME280;58618;47.490;8.736;2023-02-15T01:35:44;97909.09;;;-1.41;100.00
70954;BME280;58618;47.490;8.736;2023-02-15T01:38:12;97907.84;;;-1.45;100.00
70954;BME280;58618;47.490;8.736;2023-02-15T01:40:39;97891.59;;;-1.59;100.00
70954;BME280;58618;47.490;8.736;2023-02-15T01:43:09;97887.66;;;-1.61;100.00
70954;BME280;58618;47.490;8.736;2023-02-15T01:45:39;97889.72;;;-1.73;100.00
70954;BME280;58618;47.490;8.736;2023-02-15T01:48:18;97893.84;;;-1.80;100.00
70954;BME280;58618;47.490;8.736;2023-02-15T01:50:50;97897.66;;;-1.92;100.00
70954;BME280;58618;47.490;8.736;2023-02-15T01:53:22;97893.25;;;-2.06;100.00
70954;BME280;58618;47.490;8.736;2023-02-15T01:55:54;97894.16;;;-1.99;100.00
70954;BME280;58618;47.490;8.736;2023-02-15T01:58:24;97886.59;;;-2.07;100.00
70954;BME280;58618;47.490;8.736;2023-02-15T02:00:54;97897.34;;;-2.14;100.00
70954;BME280;58618;47.490;8.736;2023-02-15T02:03:30;97850.72;;;-2.27;100.00
70954;BME280;58618;47.490;8.736;2023-02-15T02:06:03;97888.16;;;-2.15;100.00
70954;BME280;58618;47.490;8.736;2023-02-15T02:08:31;97888.19;;;-2.23;100.00
70954;BME280;58618;47.490;8.736;2023-02-15T02:10:58;97866.66;;;-2.43;100.00
70954;BME280;58618;47.490;8.736;2023-02-15T02:13:25;97879.78;;;-2.31;100.00
70954;BME280;58618;47.490;8.736;2023-02-15T02:16:00;97885.34;;;-2.11;100.00
70954;BME280;58618;47.490;8.736;2023-02-15T02:18:35;97877.56;;;-1.94;100.00
70954;BME280;58618;47.490;8.736;2023-02-15T02:21:34;97889.91;;;-1.99;100.00
70954;BME280;58618;47.490;8.736;2023-02-15T02:27:34;97873.63;;;-2.04;100.00
70954;BME280;58618;47.490;8.736;2023-02-15T02:30:36;97876.78;;;-1.94;100.00
70954;BME280;58618;47.490;8.736;2023-02-15T02:33:24;97877.56;;;-1.69;100.00
70954;BME280;58618;47.490;8.736;2023-02-15T02:36:03;97890.03;;;-1.60;100.00
70954;BME280;58618;47.490;8.736;2023-02-15T02:38:42;97870.56;;;-1.59;100.00
70954;BME280;58618;47.490;8.736;2023-02-15T02:41:16;97883.03;;;-1.58;100.00
70954;BME280;58618;47.490;8.736;2023-02-15T02:43:49;97876.91;;;-1.72;100.00
70954;BME280;58618;47.490;8.736;2023-02-15T02:46:22;97870.13;;;-1.95;100.00
70954;BME280;58618;47.490;8.736;2023-02-15T02:48:53;97879.59;;;-1.73;100.00
70954;BME280;58618;47.490;8.736;2023-02-15T02:51:20;97875.16;;;-1.63;100.00
70954;BME280;58618;47.490;8.736;2023-02-15T02:53:50;97863.47;;;-1.64;100.00
70954;BME280;58618;47.490;8.736;2023-02-15T02:56:21;97879.38;;;-1.47;100.00
70954;BME280;58618;47.490;8.736;2023-02-15T02:58:56;97857.28;;;-1.61;100.00
70954;BME280;58618;47.490;8.736;2023-02-15T03:01:29;97876.09;;;-1.56;100.00
70954;BME280;58618;47.490;8.736;2023-02-15T03:04:03;97881.34;;;-1.65;100.00
70954;BME280;58618;47.490;8.736;2023-02-15T03:06:37;97862.09;;;-1.91;100.00
70954;BME280;58618;47.490;8.736;2023-02-15T03:09:09;97858.16;;;-2.09;100.00
70954;BME280;58618;47.490;8.736;2023-02-15T03:11:42;97883.41;;;-1.93;100.00
70954;BME280;58618;47.490;8.736;2023-02-15T03:14:10;97886.25;;;-2.04;100.00
70954;BME280;58618;47.490;8.736;2023-02-15T03:16:38;97891.47;;;-1.98;100.00
70954;BME280;58618;47.490;8.736;2023-02-15T03:19:13;97868.41;;;-2.03;100.00
70954;BME280;58618;47.490;8.736;2023-02-15T03:21:44;97884.03;;;-1.83;100.00
70954;BME280;58618;47.490;8.736;2023-02-15T03:24:18;97874.28;;;-2.02;100.00
70954;BME280;58618;47.490;8.736;2023-02-15T03:26:49;97887.53;;;-2.00;100.00
70954;BME280;58618;47.490;8.736;2023-02-15T03:29:19;97855.78;;;-2.11;100.00
70954;BME280;58618;47.490;8.736;2023-02-15T03:31:51;97883.09;;;-1.82;100.00
70954;BME280;58618;47.490;8.736;2023-02-15T03:34:23;97894.50;;;-2.02;100.00
70954;BME280;58618;47.490;8.736;2023-02-15T03:36:52;97885.00;;;-1.92;100.00
70954;BME280;58618;47.490;8.736;2023-02-15T03:39:30;97888.00;;;-1.97;100.00
70954;BME280;58618;47.490;8.736;2023-02-15T03:42:06;97887.53;;;-1.92;100.00
70954;BME280;58618;47.490;8.736;2023-02-15T03:44:42;97874.88;;;-2.17;100.00
70954;BME280;58618;47.490;8.736;2023-02-15T03:47:15;97895.28;;;-2.02;100.00
70954;BME280;58618;47.490;8.736;2023-02-15T03:49:48;97876.44;;;-1.83;100.00
70954;BME280;58618;47.490;8.736;2023-02-15T03:52:19;97884.84;;;-1.83;100.00
70954;BME280;58618;47.490;8.736;2023-02-15T03:54:47;97872.03;;;-1.81;100.00
70954;BME280;58618;47.490;8.736;2023-02-15T03:57:19;97887.31;;;-1.58;100.00
70954;BME280;58618;47.490;8.736;2023-02-15T04:00:11;97896.00;;;-1.53;100.00
70954;BME280;58618;47.490;8.736;2023-02-15T04:03:19;97888.28;;;-1.67;100.00
70954;BME280;58618;47.490;8.736;2023-02-15T04:05:51;97890.66;;;-1.74;100.00
70954;BME280;58618;47.490;8.736;2023-02-15T04:08:18;97893.53;;;-1.93;100.00
70954;BME280;58618;47.490;8.736;2023-02-15T04:10:45;97894.78;;;-1.73;100.00
70954;BME280;58618;47.490;8.736;2023-02-15T04:13:23;97891.00;;;-1.77;100.00
70954;BME280;58618;47.490;8.736;2023-02-15T04:15:53;97894.16;;;-2.16;100.00
70954;BME280;58618;47.490;8.736;2023-02-15T04:18:30;97880.41;;;-2.21;100.00
70954;BME280;58618;47.490;8.736;2023-02-15T04:21:16;97879.31;;;-2.10;100.00
70954;BME280;58618;47.490;8.736;2023-02-15T04:24:01;97889.09;;;-1.99;100.00
70954;BME280;58618;47.490;8.736;2023-02-15T04:26:45;97887.22;;;-1.81;100.00
70954;BME280;58618;47.490;8.736;2023-02-15T04:29:14;97890.66;;;-1.66;100.00
70954;BME280;58618;47.490;8.736;2023-02-15T04:31:41;97885.25;;;-1.55;100.00
70954;BME280;58618;47.490;8.736;2023-02-15T04:34:09;97888.41;;;-1.45;100.00
70954;BME280;58618;47.490;8.736;2023-02-15T04:36:38;97885.22;;;-1.47;100.00
70954;BME280;58618;47.490;8.736;2023-02-15T04:39:06;97883.00;;;-1.42;100.00
70954;BME280;58618;47.490;8.736;2023-02-15T04:41:34;97880.72;;;-1.76;100.00
70954;BME280;58618;47.490;8.736;2023-02-15T04:44:02;97876.28;;;-1.90;100.00
70954;BME280;58618;47.490;8.736;2023-02-15T04:46:30;97883.38;;;-1.69;100.00
70954;BME280;58618;47.490;8.736;2023-02-15T04:48:57;97882.16;;;-1.97;100.00
70954;BME280;58618;47.490;8.736;2023-02-15T04:51:24;97885.16;;;-1.86;100.00
70954;BME280;58618;47.490;8.736;2023-02-15T04:53:53;97832.25;;;-2.03;100.00
70954;BME280;58618;47.490;8.736;2023-02-15T04:56:20;97880.22;;;-1.63;100.00
70954;BME280;58618;47.490;8.736;2023-02-15T04:58:48;97840.75;;;-1.88;100.00
70954;BME280;58618;47.490;8.736;2023-02-15T05:01:15;97881.81;;;-1.78;100.00
70954;BME280;58618;47.490;8.736;2023-02-15T05:03:42;97878.22;;;-1.92;100.00
70954;BME280;58618;47.490;8.736;2023-02-15T05:06:09;97884.19;;;-1.85;100.00
70954;BME280;58618;47.490;8.736;2023-02-15T05:08:36;97848.38;;;-1.96;100.00
70954;BME280;58618;47.490;8.736;2023-02-15T05:11:04;97878.34;;;-1.77;100.00
70954;BME280;58618;47.490;8.736;2023-02-15T05:13:32;97876.78;;;-1.86;100.00
70954;BME280;58618;47.490;8.736;2023-02-15T05:16:00;97883.41;;;-2.26;100.00
70954;BME280;58618;47.490;8.736;2023-02-15T05:18:27;97855.16;;;-2.45;100.00
70954;BME280;58618;47.490;8.736;2023-02-15T05:20:54;97870.78;;;-2.50;100.00
70954;BME280;58618;47.490;8.736;2023-02-15T05:23:21;97881.84;;;-2.27;100.00
70954;BME280;58618;47.490;8.736;2023-02-15T05:25:49;97873.28;;;-2.58;100.00
70954;BME280;58618;47.490;8.736;2023-02-15T05:28:36;97875.81;;;-2.58;100.00
70954;BME280;58618;47.490;8.736;2023-02-15T05:31:08;97874.88;;;-2.57;100.00
70954;BME280;58618;47.490;8.736;2023-02-15T05:33:37;97871.13;;;-2.29;100.00
70954;BME280;58618;47.490;8.736;2023-02-15T05:36:05;97869.22;;;-2.19;100.00
70954;BME280;58618;47.490;8.736;2023-02-15T05:38:33;97883.75;;;-2.13;100.00
70954;BME280;58618;47.490;8.736;2023-02-15T05:41:02;97875.69;;;-2.24;100.00
70954;BME280;58618;47.490;8.736;2023-02-15T05:43:30;97877.09;;;-2.30;100.00
70954;BME280;58618;47.490;8.736;2023-02-15T05:45:58;97866.84;;;-2.36;100.00
70954;BME280;58618;47.490;8.736;2023-02-15T05:48:26;97884.69;;;-2.05;100.00
70954;BME280;58618;47.490;8.736;2023-02-15T05:50:58;97873.31;;;-2.34;100.00
70954;BME280;58618;47.490;8.736;2023-02-15T05:53:26;97869.53;;;-2.22;100.00
70954;BME280;58618;47.490;8.736;2023-02-15T05:55:53;97857.84;;;-2.23;100.00
70954;BME280;58618;47.490;8.736;2023-02-15T05:58:25;97861.00;;;-2.37;100.00
70954;BME280;58618;47.490;8.736;2023-02-15T06:00:53;97880.38;;;-2.53;100.00
70954;BME280;58618;47.490;8.736;2023-02-15T06:03:21;97897.28;;;-2.62;100.00
70954;BME280;58618;47.490;8.736;2023-02-15T06:05:49;97897.59;;;-2.65;100.00
70954;BME280;58618;47.490;8.736;2023-02-15T06:08:16;97891.09;;;-2.68;100.00
70954;BME280;58618;47.490;8.736;2023-02-15T06:10:44;97898.38;;;-2.57;100.00
70954;BME280;58618;47.490;8.736;2023-02-15T06:13:12;97902.06;;;-2.35;100.00
70954;BME280;58618;47.490;8.736;2023-02-15T06:15:39;97872.38;;;-2.41;100.00
70954;BME280;58618;47.490;8.736;2023-02-15T06:18:06;97896.63;;;-2.64;100.00
70954;BME280;58618;47.490;8.736;2023-02-15T06:20:34;97887.34;;;-2.56;100.00
70954;BME280;58618;47.490;8.736;2023-02-15T06:23:01;97901.13;;;-2.34;100.00
70954;BME280;58618;47.490;8.736;2023-02-15T06:25:29;97909.66;;;-2.19;100.00
70954;BME280;58618;47.490;8.736;2023-02-15T06:27:56;97906.63;;;-2.30;100.00
70954;BME280;58618;47.490;8.736;2023-02-15T06:30:23;97904.25;;;-2.32;100.00
70954;BME280;58618;47.490;8.736;2023-02-15T06:32:50;97921.63;;;-2.37;100.00
70954;BME280;58618;47.490;8.736;2023-02-15T06:35:17;97890.03;;;-2.57;100.00
70954;BME280;58618;47.490;8.736;2023-02-15T06:37:46;97922.38;;;-2.52;100.00
70954;BME280;58618;47.490;8.736;2023-02-15T06:40:13;97909.94;;;-2.54;100.00
70954;BME280;58618;47.490;8.736;2023-02-15T06:42:41;97925.41;;;-2.49;100.00
70954;BME280;58618;47.490;8.736;2023-02-15T06:45:09;97913.34;;;-2.71;100.00
70954;BME280;58618;47.490;8.736;2023-02-15T06:47:36;97925.97;;;-2.63;100.00
70954;BME280;58618;47.490;8.736;2023-02-15T06:50:05;97924.78;;;-2.35;100.00
70954;BME280;58618;47.490;8.736;2023-02-15T06:52:33;97916.88;;;-2.40;100.00
70954;BME280;58618;47.490;8.736;2023-02-15T06:55:01;97927.03;;;-2.24;100.00
70954;BME280;58618;47.490;8.736;2023-02-15T06:57:29;97917.84;;;-2.25;100.00
70954;BME280;58618;47.490;8.736;2023-02-15T06:59:56;97933.97;;;-2.26;100.00
70954;BME280;58618;47.490;8.736;2023-02-15T07:02:24;97910.88;;;-2.47;100.00
70954;BME280;58618;47.490;8.736;2023-02-15T07:04:54;97932.66;;;-2.38;100.00
70954;BME280;58618;47.490;8.736;2023-02-15T07:07:23;97919.03;;;-2.69;100.00
70954;BME280;58618;47.490;8.736;2023-02-15T07:09:50;97934.06;;;-2.60;100.00
70954;BME280;58618;47.490;8.736;2023-02-15T07:12:19;97918.72;;;-2.66;100.00
70954;BME280;58618;47.490;8.736;2023-02-15T07:15:22;97893.44;;;-2.74;100.00
70954;BME280;58618;47.490;8.736;2023-02-15T07:17:50;97907.66;;;-2.81;100.00
70954;BME280;58618;47.490;8.736;2023-02-15T07:20:20;97911.16;;;-2.66;100.00
70954;BME280;58618;47.490;8.736;2023-02-15T07:22:49;97876.41;;;-2.72;100.00
70954;BME280;58618;47.490;8.736;2023-02-15T07:25:17;97905.19;;;-2.41;100.00
70954;BME280;58618;47.490;8.736;2023-02-15T07:27:46;97905.53;;;-2.44;100.00
70954;BME280;58618;47.490;8.736;2023-02-15T07:30:15;97877.03;;;-2.78;100.00
70954;BME280;58618;47.490;8.736;2023-02-15T07:32:43;97917.53;;;-2.30;100.00
70954;BME280;58618;47.490;8.736;2023-02-15T07:35:33;97913.75;;;-2.18;100.00
70954;BME280;58618;47.490;8.736;2023-02-15T07:38:01;97893.69;;;-2.27;100.00
70954;BME280;58618;47.490;8.736;2023-02-15T07:40:28;97899.22;;;-2.07;100.00
70954;BME280;58618;47.490;8.736;2023-02-15T07:42:58;97910.28;;;-1.92;100.00
70954;BME280;58618;47.490;8.736;2023-02-15T07:45:25;97916.59;;;-1.88;100.00
70954;BME280;58618;47.490;8.736;2023-02-15T07:47:53;97869.22;;;-2.02;100.00
70954;BME280;58618;47.490;8.736;2023-02-15T07:50:20;97902.38;;;-1.81;100.00
70954;BME280;58618;47.490;8.736;2023-02-15T07:52:48;97916.25;;;-1.69;100.00
70954;BME280;58618;47.490;8.736;2023-02-15T07:55:15;97890.50;;;-1.73;100.00
70954;BME280;58618;47.490;8.736;2023-02-15T07:57:43;97892.72;;;-1.61;100.00
70954;BME280;58618;47.490;8.736;2023-02-15T08:00:14;97888.41;;;-1.45;100.00
70954;BME280;58618;47.490;8.736;2023-02-15T08:02:41;97882.69;;;-1.39;100.00
70954;BME280;58618;47.490;8.736;2023-02-15T08:05:09;97911.53;;;-1.01;100.00
70954;BME280;58618;47.490;8.736;2023-02-15T08:07:36;97896.00;;;-0.98;100.00
70954;BME280;58618;47.490;8.736;2023-02-15T08:10:04;97904.88;;;-0.71;100.00
70954;BME280;58618;47.490;8.736;2023-02-15T08:12:31;97896.00;;;-0.67;100.00
70954;BME280;58618;47.490;8.736;2023-02-15T08:14:58;97905.09;;;-0.50;100.00
70954;BME280;58618;47.490;8.736;2023-02-15T08:17:27;97906.00;;;-0.43;100.00
70954;BME280;58618;47.490;8.736;2023-02-15T08:19:54;97887.50;;;-0.51;100.00
70954;BME280;58618;47.490;8.736;2023-02-15T08:22:21;97868.81;;;-0.50;100.00
70954;BME280;58618;47.490;8.736;2023-02-15T08:24:48;97905.28;;;-0.28;100.00
70954;BME280;58618;47.490;8.736;2023-02-15T08:27:17;97849.75;;;-0.38;100.00
70954;BME280;58618;47.490;8.736;2023-02-15T08:29:44;97887.41;;;-0.12;100.00
70954;BME280;58618;47.490;8.736;2023-02-15T08:32:11;97882.78;;;-0.31;100.00
70954;BME280;58618;47.490;8.736;2023-02-15T08:34:41;97880.88;;;-0.29;100.00
70954;BME280;58618;47.490;8.736;2023-02-15T08:37:08;97886.84;;;-0.22;100.00
70954;BME280;58618;47.490;8.736;2023-02-15T08:39:36;97872.88;;;-0.41;100.00
70954;BME280;58618;47.490;8.736;2023-02-15T08:42:03;97892.63;;;-0.36;100.00
70954;BME280;58618;47.490;8.736;2023-02-15T08:44:30;97893.91;;;-0.63;100.00
70954;BME280;58618;47.490;8.736;2023-02-15T08:47:01;97894.97;;;-0.58;100.00
70954;BME280;58618;47.490;8.736;2023-02-15T08:49:29;97878.41;;;-0.37;100.00
70954;BME280;58618;47.490;8.736;2023-02-15T08:51:58;97880.47;;;-0.18;100.00
70954;BME280;58618;47.490;8.736;2023-02-15T08:54:25;97885.47;;;-0.10;100.00
70954;BME280;58618;47.490;8.736;2023-02-15T08:56:52;97888.84;;;0.05;100.00
70954;BME280;58618;47.490;8.736;2023-02-15T08:59:21;97882.75;;;0.14;100.00
70954;BME280;58618;47.490;8.736;2023-02-15T09:01:50;97882.50;;;0.24;100.00
70954;BME280;58618;47.490;8.736;2023-02-15T09:04:18;97880.94;;;0.37;100.00
70954;BME280;58618;47.490;8.736;2023-02-15T09:06:47;97891.63;;;0.48;100.00
70954;BME280;58618;47.490;8.736;2023-02-15T09:09:22;97863.53;;;0.34;100.00
70954;BME280;58618;47.490;8.736;2023-02-15T09:11:50;97855.81;;;0.42;100.00
70954;BME280;58618;47.490;8.736;2023-02-15T09:14:21;97863.88;;;0.61;100.00
70954;BME280;58618;47.490;8.736;2023-02-15T09:16:52;97857.97;;;0.02;100.00
70954;BME280;58618;47.490;8.736;2023-02-15T09:19:22;97860.03;;;0.35;100.00
70954;BME280;58618;47.490;8.736;2023-02-15T09:21:49;97877.63;;;0.52;100.00
70954;BME280;58618;47.490;8.736;2023-02-15T09:24:17;97849.72;;;0.52;100.00
70954;BME280;58618;47.490;8.736;2023-02-15T09:26:48;97883.75;;;0.87;100.00
70954;BME280;58618;47.490;8.736;2023-02-15T09:29:16;97875.25;;;0.94;100.00
70954;BME280;58618;47.490;8.736;2023-02-15T09:31:45;97878.56;;;1.09;100.00
70954;BME280;58618;47.490;8.736;2023-02-15T09:34:16;97865.63;;;1.25;100.00
70954;BME280;58618;47.490;8.736;2023-02-15T09:36:44;97875.13;;;1.53;100.00
70954;BME280;58618;47.490;8.736;2023-02-15T09:39:14;97860.09;;;1.58;100.00
70954;BME280;58618;47.490;8.736;2023-02-15T09:41:57;97859.63;;;1.69;100.00
70954;BME280;58618;47.490;8.736;2023-02-15T09:44:39;97872.34;;;1.69;97.97
70954;BME280;58618;47.490;8.736;2023-02-15T09:50:25;97869.81;;;1.76;100.00
70954;BME280;58618;47.490;8.736;2023-02-15T09:53:09;97837.06;;;1.66;99.80
70954;BME280;58618;47.490;8.736;2023-02-15T09:55:48;97839.69;;;1.73;99.10
70954;BME280;58618;47.490;8.736;2023-02-15T09:58:26;97862.22;;;2.03;99.98
70954;BME280;58618;47.490;8.736;2023-02-15T10:01:04;97855.22;;;2.05;98.03
70954;BME280;58618;47.490;8.736;2023-02-15T10:03:42;97812.47;;;1.94;99.51
70954;BME280;58618;47.490;8.736;2023-02-15T10:06:27;97827.63;;;2.37;98.45
70954;BME280;58618;47.490;8.736;2023-02-15T10:09:06;97842.16;;;2.43;96.19
70954;BME280;58618;47.490;8.736;2023-02-15T10:11:50;97840.63;;;2.21;96.26
70954;BME280;58618;47.490;8.736;2023-02-15T10:14:37;97826.75;;;1.46;100.00
70954;BME280;58618;47.490;8.736;2023-02-15T10:17:16;97863.16;;;1.75;100.00
70954;BME280;58618;47.490;8.736;2023-02-15T10:19:58;97821.59;;;1.61;99.43
70954;BME280;58618;47.490;8.736;2023-02-15T10:22:40;97816.13;;;1.64;100.00
70954;BME280;58618;47.490;8.736;2023-02-15T10:25:25;97812.25;;;1.68;100.00
70954;BME280;58618;47.490;8.736;2023-02-15T10:28:01;97820.47;;;1.70;100.00
70954;BME280;58618;47.490;8.736;2023-02-15T10:30:42;97827.25;;;1.84;100.00
70954;BME280;58618;47.490;8.736;2023-02-15T10:33:21;97818.41;;;1.80;100.00
70954;BME280;58618;47.490;8.736;2023-02-15T10:36:05;97833.13;;;1.85;100.00
70954;BME280;58618;47.490;8.736;2023-02-15T10:38:38;97829.06;;;1.90;100.00
70954;BME280;58618;47.490;8.736;2023-02-15T10:41:21;97834.84;;;2.05;100.00
70954;BME280;58618;47.490;8.736;2023-02-15T10:44:03;97805.47;;;2.03;100.00
70954;BME280;58618;47.490;8.736;2023-02-15T10:46:46;97827.47;;;2.17;99.34
70954;BME280;58618;47.490;8.736;2023-02-15T10:49:50;97812.25;;;2.24;99.25
70954;BME280;58618;47.490;8.736;2023-02-15T10:52:28;97817.28;;;2.17;100.00
70954;BME280;58618;47.490;8.736;2023-02-15T10:55:04;97801.19;;;2.38;100.00
70954;BME280;58618;47.490;8.736;2023-02-15T10:57:46;97804.09;;;2.35;100.00
70954;BME280;58618;47.490;8.736;2023-02-15T11:00:22;97779.06;;;2.45;100.00
70954;BME280;58618;47.490;8.736;2023-02-15T11:03:04;97788.59;;;2.71;100.00
70954;BME280;58618;47.490;8.736;2023-02-15T11:05:42;97775.66;;;2.72;100.00
70954;BME280;58618;47.490;8.736;2023-02-15T11:08:15;97787.88;;;2.96;100.00
70954;BME280;58618;47.490;8.736;2023-02-15T11:10:47;97774.97;;;3.05;100.00
70954;BME280;58618;47.490;8.736;2023-02-15T11:13:18;97779.13;;;3.19;100.00
70954;BME280;58618;47.490;8.736;2023-02-15T11:15:49;97746.75;;;3.13;99.80
70954;BME280;58618;47.490;8.736;2023-02-15T11:18:25;97761.09;;;3.33;97.95
70954;BME280;58618;47.490;8.736;2023-02-15T11:20:56;97754.19;;;2.94;98.84
70954;BME280;58618;47.490;8.736;2023-02-15T11:23:27;97754.38;;;3.13;98.94
70954;BME280;58618;47.490;8.736;2023-02-15T11:25:58;97713.00;;;2.97;98.53
70954;BME280;58618;47.490;8.736;2023-02-15T11:28:31;97754.22;;;3.34;98.47
70954;BME280;58618;47.490;8.736;2023-02-15T11:31:02;97733.81;;;3.34;98.48
70954;BME280;58618;47.490;8.736;2023-02-15T11:33:44;97749.34;;;3.32;97.85
70954;BME280;58618;47.490;8.736;2023-02-15T11:36:15;97742.06;;;3.56;97.37
70954;BME280;58618;47.490;8.736;2023-02-15T11:38:45;97715.00;;;3.48;94.84
70954;BME280;58618;47.490;8.736;2023-02-15T11:41:18;97732.66;;;3.63;94.36
70954;BME280;58618;47.490;8.736;2023-02-15T11:43:50;97729.13;;;3.64;95.08
70954;BME280;58618;47.490;8.736;2023-02-15T11:46:20;97721.66;;;3.62;95.31
70954;BME280;58618;47.490;8.736;2023-02-15T11:48:49;97726.38;;;3.59;95.92
70954;BME280;58618;47.490;8.736;2023-02-15T11:51:18;97674.59;;;3.32;97.79
70954;BME280;58618;47.490;8.736;2023-02-15T11:53:48;97727.50;;;3.89;97.95
70954;BME280;58618;47.490;8.736;2023-02-15T11:56:18;97720.28;;;3.79;95.27
70954;BME280;58618;47.490;8.736;2023-02-15T11:58:48;97696.16;;;3.62;96.42
70954;BME280;58618;47.490;8.736;2023-02-15T12:01:20;97724.78;;;3.77;96.49
70954;BME280;58618;47.490;8.736;2023-02-15T12:03:53;97687.34;;;3.58;95.79
70954;BME280;58618;47.490;8.736;2023-02-15T12:06:25;97709.88;;;3.74;95.94
70954;BME280;58618;47.490;8.736;2023-02-15T12:09:03;97699.06;;;3.86;98.57
70954;BME280;58618;47.490;8.736;2023-02-15T12:11:35;97708.63;;;3.97;96.12
70954;BME280;58618;47.490;8.736;2023-02-15T12:14:05;97703.16;;;4.00;96.33
70954;BME280;58618;47.490;8.736;2023-02-15T12:16:39;97670.22;;;3.78;97.24
70954;BME280;58618;47.490;8.736;2023-02-15T12:19:18;97683.94;;;3.84;96.26
70954;BME280;58618;47.490;8.736;2023-02-15T12:21:51;97705.25;;;4.16;98.50
70954;BME280;58618;47.490;8.736;2023-02-15T12:24:22;97677.19;;;4.16;97.44
70954;BME280;58618;47.490;8.736;2023-02-15T12:26:59;97691.06;;;4.33;97.22
70954;BME280;58618;47.490;8.736;2023-02-15T12:29:30;97684.56;;;4.31;96.85
70954;BME280;58618;47.490;8.736;2023-02-15T12:32:00;97687.63;;;4.52;97.03
70954;BME280;58618;47.490;8.736;2023-02-15T12:34:32;97680.72;;;4.59;96.25
70954;BME280;58618;47.490;8.736;2023-02-15T12:37:14;97677.56;;;4.57;95.48
70954;BME280;58618;47.490;8.736;2023-02-15T12:39:51;97681.06;;;4.70;96.19
70954;BME280;58618;47.490;8.736;2023-02-15T12:42:20;97665.66;;;4.76;96.29
70954;BME280;58618;47.490;8.736;2023-02-15T12:44:57;97674.09;;;4.77;94.95
70954;BME280;58618;47.490;8.736;2023-02-15T12:47:27;97673.75;;;4.73;96.13
70954;BME280;58618;47.490;8.736;2023-02-15T12:50:11;97678.00;;;4.86;95.58
70954;BME280;58618;47.490;8.736;2023-02-15T12:52:49;97671.06;;;4.93;95.26
70954;BME280;58618;47.490;8.736;2023-02-15T12:55:23;97652.34;;;4.99;94.85
70954;BME280;58618;47.490;8.736;2023-02-15T12:58:06;97660.47;;;5.14;92.69
70954;BME280;58618;47.490;8.736;2023-02-15T13:00:35;97656.53;;;5.18;92.57
70954;BME280;58618;47.490;8.736;2023-02-15T13:03:03;97654.72;;;5.19;92.21
70954;BME280;58618;47.490;8.736;2023-02-15T13:05:35;97654.53;;;5.20;92.09
70954;BME280;58618;47.490;8.736;2023-02-15T13:08:10;97651.34;;;5.25;92.17
70954;BME280;58618;47.490;8.736;2023-02-15T13:10:41;97617.25;;;5.13;92.78
70954;BME280;58618;47.490;8.736;2023-02-15T13:13:10;97620.28;;;5.21;91.72
70954;BME280;58618;47.490;8.736;2023-02-15T13:15:46;97631.13;;;5.41;92.13
70954;BME280;58618;47.490;8.736;2023-02-15T13:18:17;97632.00;;;5.53;93.50
70954;BME280;58618;47.490;8.736;2023-02-15T13:20:49;97623.88;;;5.57;93.07
70954;BME280;58618;47.490;8.736;2023-02-15T13:23:26;97627.31;;;5.69;92.85
70954;BME280;58618;47.490;8.736;2023-02-15T13:25:56;97620.97;;;5.71;91.71